Akin, Illinois
Current Conditions -  °F | °C
As of 11:55 PM on Monday 26 Jan 2015 (Local Time) from KHSB Reporting Station
Overcast Overcast  
Wind Chill: 33°   Ceiling: 6000
Heat Index: 33°   Visibility: 10mi
Dew Point: 32°   Wind: 3mph
Humidity: 96%   Direction: 40°NE
Pressure: 29.92"   Gusts: NA
Location:  37.99°N, 88.75°W
Report Text: KHSB 270555Z AUTO 04003KT 10SM SCT041 OVC060 01/00 A2992 RMK AO2 T00060001 10007 20003 400101020
Loading
Personal Weather Stations






























Interactive Weather Map New forecast layout! Learn more

10-Day Weather Forecast

Advertisements
Track Severe Weather on mobile